sensor_id;sensor_type;location;lat;lon;timestamp;P1;durP1;ratioP1;P2;durP2;ratioP2
77409;SDS011;66481;51.332;22.804;2023-05-19T00:00:49;9.90;;;5.88;;
77409;SDS011;66481;51.332;22.804;2023-05-19T00:04:53;8.38;;;5.60;;
77409;SDS011;66481;51.332;22.804;2023-05-19T00:08:58;9.88;;;5.63;;
77409;SDS011;66481;51.332;22.804;2023-05-19T00:13:04;9.98;;;5.60;;
77409;SDS011;66481;51.332;22.804;2023-05-19T00:17:05;10.73;;;5.47;;
77409;SDS011;66481;51.332;22.804;2023-05-19T00:21:07;8.93;;;5.60;;
77409;SDS011;66481;51.332;22.804;2023-05-19T00:25:08;12.73;;;5.55;;
77409;SDS011;66481;51.332;22.804;2023-05-19T00:29:10;10.85;;;5.53;;
77409;SDS011;66481;51.332;22.804;2023-05-19T00:33:10;8.25;;;4.82;;
77409;SDS011;66481;51.332;22.804;2023-05-19T00:37:11;8.75;;;5.35;;
77409;SDS011;66481;51.332;22.804;2023-05-19T00:41:12;9.98;;;5.63;;
77409;SDS011;66481;51.332;22.804;2023-05-19T00:45:13;8.18;;;5.43;;
77409;SDS011;66481;51.332;22.804;2023-05-19T00:49:14;9.65;;;5.75;;
77409;SDS011;66481;51.332;22.804;2023-05-19T00:53:16;10.82;;;5.68;;
77409;SDS011;66481;51.332;22.804;2023-05-19T00:57:18;10.55;;;5.95;;
77409;SDS011;66481;51.332;22.804;2023-05-19T01:01:20;9.80;;;6.30;;
77409;SDS011;66481;51.332;22.804;2023-05-19T01:05:22;8.50;;;5.60;;
77409;SDS011;66481;51.332;22.804;2023-05-19T01:09:23;9.05;;;6.03;;
77409;SDS011;66481;51.332;22.804;2023-05-19T01:13:24;9.98;;;6.07;;
77409;SDS011;66481;51.332;22.804;2023-05-19T01:17:36;11.52;;;5.72;;
77409;SDS011;66481;51.332;22.804;2023-05-19T01:26:15;9.73;;;5.95;;
77409;SDS011;66481;51.332;22.804;2023-05-19T01:30:29;9.57;;;5.80;;
77409;SDS011;66481;51.332;22.804;2023-05-19T01:34:32;13.43;;;6.78;;
77409;SDS011;66481;51.332;22.804;2023-05-19T01:38:37;9.95;;;6.25;;
77409;SDS011;66481;51.332;22.804;2023-05-19T01:42:39;9.10;;;5.65;;
77409;SDS011;66481;51.332;22.804;2023-05-19T01:46:41;8.85;;;5.80;;
77409;SDS011;66481;51.332;22.804;2023-05-19T01:50:43;9.93;;;6.22;;
77409;SDS011;66481;51.332;22.804;2023-05-19T01:54:45;12.05;;;6.53;;
77409;SDS011;66481;51.332;22.804;2023-05-19T01:58:47;8.15;;;5.78;;
77409;SDS011;66481;51.332;22.804;2023-05-19T02:07:30;9.65;;;6.03;;
77409;SDS011;66481;51.332;22.804;2023-05-19T02:11:46;9.20;;;5.80;;
77409;SDS011;66481;51.332;22.804;2023-05-19T02:15:56;8.02;;;5.47;;
77409;SDS011;66481;51.332;22.804;2023-05-19T02:20:04;10.85;;;6.30;;
77409;SDS011;66481;51.332;22.804;2023-05-19T02:24:06;9.57;;;5.57;;
77409;SDS011;66481;51.332;22.804;2023-05-19T02:28:07;8.27;;;5.18;;
77409;SDS011;66481;51.332;22.804;2023-05-19T02:32:08;8.18;;;5.85;;
77409;SDS011;66481;51.332;22.804;2023-05-19T02:36:10;8.68;;;4.97;;
77409;SDS011;66481;51.332;22.804;2023-05-19T02:40:13;7.80;;;4.97;;
77409;SDS011;66481;51.332;22.804;2023-05-19T02:44:14;6.50;;;5.18;;
77409;SDS011;66481;51.332;22.804;2023-05-19T02:48:15;7.25;;;5.28;;
77409;SDS011;66481;51.332;22.804;2023-05-19T02:52:16;10.95;;;5.22;;
77409;SDS011;66481;51.332;22.804;2023-05-19T02:56:17;8.32;;;5.45;;
77409;SDS011;66481;51.332;22.804;2023-05-19T03:00:18;7.53;;;5.38;;
77409;SDS011;66481;51.332;22.804;2023-05-19T03:04:19;7.88;;;5.30;;
77409;SDS011;66481;51.332;22.804;2023-05-19T03:08:20;11.27;;;5.05;;
77409;SDS011;66481;51.332;22.804;2023-05-19T03:12:21;11.13;;;5.70;;
77409;SDS011;66481;51.332;22.804;2023-05-19T03:16:22;7.85;;;5.07;;
77409;SDS011;66481;51.332;22.804;2023-05-19T03:20:23;9.45;;;5.35;;
77409;SDS011;66481;51.332;22.804;2023-05-19T03:24:24;9.77;;;5.28;;
77409;SDS011;66481;51.332;22.804;2023-05-19T03:28:25;8.20;;;4.90;;
77409;SDS011;66481;51.332;22.804;2023-05-19T03:32:26;9.60;;;5.32;;
77409;SDS011;66481;51.332;22.804;2023-05-19T03:36:27;12.15;;;5.45;;
77409;SDS011;66481;51.332;22.804;2023-05-19T03:40:31;10.02;;;5.57;;
77409;SDS011;66481;51.332;22.804;2023-05-19T03:44:32;9.30;;;4.72;;
77409;SDS011;66481;51.332;22.804;2023-05-19T03:48:33;7.38;;;4.60;;
77409;SDS011;66481;51.332;22.804;2023-05-19T03:52:35;7.22;;;4.85;;
77409;SDS011;66481;51.332;22.804;2023-05-19T03:56:38;9.77;;;5.38;;
77409;SDS011;66481;51.332;22.804;2023-05-19T04:00:40;8.45;;;4.50;;
77409;SDS011;66481;51.332;22.804;2023-05-19T04:04:42;8.07;;;4.47;;
77409;SDS011;66481;51.332;22.804;2023-05-19T04:08:43;10.77;;;4.47;;
77409;SDS011;66481;51.332;22.804;2023-05-19T04:12:45;6.80;;;4.60;;
77409;SDS011;66481;51.332;22.804;2023-05-19T04:16:47;5.95;;;4.88;;
77409;SDS011;66481;51.332;22.804;2023-05-19T04:20:48;8.90;;;4.20;;
77409;SDS011;66481;51.332;22.804;2023-05-19T04:24:50;9.07;;;4.93;;
77409;SDS011;66481;51.332;22.804;2023-05-19T04:28:52;7.65;;;4.57;;
77409;SDS011;66481;51.332;22.804;2023-05-19T04:37:45;6.50;;;4.50;;
77409;SDS011;66481;51.332;22.804;2023-05-19T04:41:46;8.27;;;4.97;;
77409;SDS011;66481;51.332;22.804;2023-05-19T04:45:47;7.90;;;4.55;;
77409;SDS011;66481;51.332;22.804;2023-05-19T04:49:51;6.60;;;4.65;;
77409;SDS011;66481;51.332;22.804;2023-05-19T04:54:11;9.93;;;4.72;;
77409;SDS011;66481;51.332;22.804;2023-05-19T05:02:44;7.28;;;4.30;;
77409;SDS011;66481;51.332;22.804;2023-05-19T05:06:45;7.68;;;5.15;;
77409;SDS011;66481;51.332;22.804;2023-05-19T05:10:51;8.75;;;5.03;;
77409;SDS011;66481;51.332;22.804;2023-05-19T05:14:53;6.38;;;4.82;;
77409;SDS011;66481;51.332;22.804;2023-05-19T05:18:53;6.97;;;4.82;;
77409;SDS011;66481;51.332;22.804;2023-05-19T05:22:55;7.10;;;4.53;;
77409;SDS011;66481;51.332;22.804;2023-05-19T05:26:57;10.73;;;5.13;;
77409;SDS011;66481;51.332;22.804;2023-05-19T05:30:58;8.52;;;4.40;;
77409;SDS011;66481;51.332;22.804;2023-05-19T05:34:59;6.68;;;3.83;;
77409;SDS011;66481;51.332;22.804;2023-05-19T05:39:01;7.55;;;4.18;;
77409;SDS011;66481;51.332;22.804;2023-05-19T05:43:03;7.80;;;4.20;;
77409;SDS011;66481;51.332;22.804;2023-05-19T05:47:04;7.05;;;4.43;;
77409;SDS011;66481;51.332;22.804;2023-05-19T05:51:06;9.57;;;4.50;;
77409;SDS011;66481;51.332;22.804;2023-05-19T05:55:07;6.68;;;3.72;;
77409;SDS011;66481;51.332;22.804;2023-05-19T05:59:08;7.40;;;4.32;;
77409;SDS011;66481;51.332;22.804;2023-05-19T06:03:09;7.20;;;4.47;;
77409;SDS011;66481;51.332;22.804;2023-05-19T06:07:11;8.80;;;3.88;;
77409;SDS011;66481;51.332;22.804;2023-05-19T06:11:12;8.55;;;4.10;;
77409;SDS011;66481;51.332;22.804;2023-05-19T06:15:14;7.85;;;3.95;;
77409;SDS011;66481;51.332;22.804;2023-05-19T06:19:16;5.95;;;4.35;;
77409;SDS011;66481;51.332;22.804;2023-05-19T06:23:21;8.25;;;4.65;;
77409;SDS011;66481;51.332;22.804;2023-05-19T06:27:22;5.28;;;3.80;;
77409;SDS011;66481;51.332;22.804;2023-05-19T06:31:23;7.32;;;4.10;;
77409;SDS011;66481;51.332;22.804;2023-05-19T06:35:25;5.82;;;3.60;;
77409;SDS011;66481;51.332;22.804;2023-05-19T06:39:26;5.82;;;4.18;;
77409;SDS011;66481;51.332;22.804;2023-05-19T06:43:27;8.52;;;4.22;;
77409;SDS011;66481;51.332;22.804;2023-05-19T06:47:29;6.03;;;4.50;;
77409;SDS011;66481;51.332;22.804;2023-05-19T06:51:30;8.88;;;4.72;;
77409;SDS011;66481;51.332;22.804;2023-05-19T06:55:31;7.13;;;4.28;;
77409;SDS011;66481;51.332;22.804;2023-05-19T06:59:32;7.30;;;4.35;;
77409;SDS011;66481;51.332;22.804;2023-05-19T07:03:33;7.60;;;4.35;;
77409;SDS011;66481;51.332;22.804;2023-05-19T07:07:34;8.07;;;4.10;;
77409;SDS011;66481;51.332;22.804;2023-05-19T07:11:35;9.18;;;4.47;;
77409;SDS011;66481;51.332;22.804;2023-05-19T07:15:36;5.85;;;3.58;;
77409;SDS011;66481;51.332;22.804;2023-05-19T07:19:38;6.35;;;4.15;;
77409;SDS011;66481;51.332;22.804;2023-05-19T07:23:38;7.47;;;4.63;;
77409;SDS011;66481;51.332;22.804;2023-05-19T07:27:40;8.05;;;4.20;;
77409;SDS011;66481;51.332;22.804;2023-05-19T07:31:41;9.88;;;4.18;;
77409;SDS011;66481;51.332;22.804;2023-05-19T07:35:42;9.88;;;4.38;;
77409;SDS011;66481;51.332;22.804;2023-05-19T07:39:44;8.77;;;4.63;;
77409;SDS011;66481;51.332;22.804;2023-05-19T07:43:44;9.05;;;5.15;;
77409;SDS011;66481;51.332;22.804;2023-05-19T07:47:45;7.85;;;4.95;;
77409;SDS011;66481;51.332;22.804;2023-05-19T07:51:46;10.13;;;4.97;;
77409;SDS011;66481;51.332;22.804;2023-05-19T07:55:48;8.23;;;4.57;;
77409;SDS011;66481;51.332;22.804;2023-05-19T07:59:49;9.80;;;4.85;;
77409;SDS011;66481;51.332;22.804;2023-05-19T08:03:51;8.07;;;4.55;;
77409;SDS011;66481;51.332;22.804;2023-05-19T08:07:52;6.88;;;4.88;;
77409;SDS011;66481;51.332;22.804;2023-05-19T08:11:54;7.03;;;4.53;;
77409;SDS011;66481;51.332;22.804;2023-05-19T08:15:55;9.20;;;5.93;;
77409;SDS011;66481;51.332;22.804;2023-05-19T08:19:59;7.90;;;5.35;;
77409;SDS011;66481;51.332;22.804;2023-05-19T08:24:00;9.85;;;6.43;;
77409;SDS011;66481;51.332;22.804;2023-05-19T08:28:01;11.48;;;5.72;;
77409;SDS011;66481;51.332;22.804;2023-05-19T08:32:03;23.35;;;9.70;;
77409;SDS011;66481;51.332;22.804;2023-05-19T08:36:04;14.55;;;5.03;;
77409;SDS011;66481;51.332;22.804;2023-05-19T08:40:07;5.95;;;4.22;;
77409;SDS011;66481;51.332;22.804;2023-05-19T08:44:16;7.15;;;4.63;;
77409;SDS011;66481;51.332;22.804;2023-05-19T08:48:17;8.20;;;3.95;;
77409;SDS011;66481;51.332;22.804;2023-05-19T08:56:57;9.88;;;5.28;;
77409;SDS011;66481;51.332;22.804;2023-05-19T09:00:58;9.43;;;5.32;;
77409;SDS011;66481;51.332;22.804;2023-05-19T09:05:00;6.22;;;4.72;;
77409;SDS011;66481;51.332;22.804;2023-05-19T09:09:02;8.48;;;6.03;;
77409;SDS011;66481;51.332;22.804;2023-05-19T09:13:03;9.27;;;5.95;;
77409;SDS011;66481;51.332;22.804;2023-05-19T09:17:05;5.82;;;4.07;;
77409;SDS011;66481;51.332;22.804;2023-05-19T09:21:06;7.32;;;4.70;;
77409;SDS011;66481;51.332;22.804;2023-05-19T09:25:22;8.32;;;4.95;;
77409;SDS011;66481;51.332;22.804;2023-05-19T09:29:24;9.55;;;5.93;;
77409;SDS011;66481;51.332;22.804;2023-05-19T09:33:28;7.88;;;5.10;;
77409;SDS011;66481;51.332;22.804;2023-05-19T09:37:30;8.15;;;4.78;;
77409;SDS011;66481;51.332;22.804;2023-05-19T09:41:31;12.07;;;5.80;;
77409;SDS011;66481;51.332;22.804;2023-05-19T09:45:32;8.40;;;5.53;;
77409;SDS011;66481;51.332;22.804;2023-05-19T09:49:34;10.13;;;5.40;;
77409;SDS011;66481;51.332;22.804;2023-05-19T09:53:35;11.23;;;5.97;;
77409;SDS011;66481;51.332;22.804;2023-05-19T09:57:36;9.52;;;5.28;;
77409;SDS011;66481;51.332;22.804;2023-05-19T10:01:38;8.25;;;5.10;;
77409;SDS011;66481;51.332;22.804;2023-05-19T10:05:41;7.32;;;5.53;;
77409;SDS011;66481;51.332;22.804;2023-05-19T10:09:42;12.13;;;5.35;;
77409;SDS011;66481;51.332;22.804;2023-05-19T10:13:45;11.27;;;5.35;;
77409;SDS011;66481;51.332;22.804;2023-05-19T10:17:48;8.93;;;5.72;;
77409;SDS011;66481;51.332;22.804;2023-05-19T10:21:50;9.32;;;5.72;;
77409;SDS011;66481;51.332;22.804;2023-05-19T10:25:53;9.10;;;5.22;;
77409;SDS011;66481;51.332;22.804;2023-05-19T10:29:59;9.55;;;6.43;;
77409;SDS011;66481;51.332;22.804;2023-05-19T10:42:50;8.98;;;5.60;;
77409;SDS011;66481;51.332;22.804;2023-05-19T10:47:04;8.25;;;5.57;;
77409;SDS011;66481;51.332;22.804;2023-05-19T10:51:06;10.52;;;5.75;;
77409;SDS011;66481;51.332;22.804;2023-05-19T10:55:11;11.95;;;5.93;;
77409;SDS011;66481;51.332;22.804;2023-05-19T10:59:35;11.30;;;6.15;;
77409;SDS011;66481;51.332;22.804;2023-05-19T11:03:47;10.73;;;5.55;;
77409;SDS011;66481;51.332;22.804;2023-05-19T11:07:57;11.18;;;6.53;;
77409;SDS011;66481;51.332;22.804;2023-05-19T11:12:10;14.50;;;7.03;;
77409;SDS011;66481;51.332;22.804;2023-05-19T11:16:11;11.88;;;5.70;;
77409;SDS011;66481;51.332;22.804;2023-05-19T11:20:22;9.88;;;5.72;;
77409;SDS011;66481;51.332;22.804;2023-05-19T11:28:43;10.80;;;5.55;;
77409;SDS011;66481;51.332;22.804;2023-05-19T11:32:47;13.73;;;6.32;;
77409;SDS011;66481;51.332;22.804;2023-05-19T11:36:48;14.80;;;6.28;;
77409;SDS011;66481;51.332;22.804;2023-05-19T11:40:53;9.65;;;6.50;;
77409;SDS011;66481;51.332;22.804;2023-05-19T11:44:55;12.60;;;7.28;;
77409;SDS011;66481;51.332;22.804;2023-05-19T11:48:56;11.48;;;6.47;;
77409;SDS011;66481;51.332;22.804;2023-05-19T11:52:58;12.38;;;6.57;;
77409;SDS011;66481;51.332;22.804;2023-05-19T11:57:00;13.15;;;6.85;;
77409;SDS011;66481;51.332;22.804;2023-05-19T12:01:02;12.07;;;6.50;;
77409;SDS011;66481;51.332;22.804;2023-05-19T12:05:04;12.27;;;7.85;;
77409;SDS011;66481;51.332;22.804;2023-05-19T12:09:05;11.90;;;6.53;;
77409;SDS011;66481;51.332;22.804;2023-05-19T12:13:06;14.07;;;7.00;;
77409;SDS011;66481;51.332;22.804;2023-05-19T12:17:09;13.52;;;7.63;;
77409;SDS011;66481;51.332;22.804;2023-05-19T12:21:11;13.18;;;7.40;;
77409;SDS011;66481;51.332;22.804;2023-05-19T12:25:14;12.82;;;6.55;;
77409;SDS011;66481;51.332;22.804;2023-05-19T12:29:15;14.43;;;7.43;;
77409;SDS011;66481;51.332;22.804;2023-05-19T12:33:19;18.75;;;8.43;;
77409;SDS011;66481;51.332;22.804;2023-05-19T12:37:25;16.50;;;7.57;;
77409;SDS011;66481;51.332;22.804;2023-05-19T12:41:27;13.30;;;7.07;;
77409;SDS011;66481;51.332;22.804;2023-05-19T12:45:32;17.52;;;8.40;;
77409;SDS011;66481;51.332;22.804;2023-05-19T12:49:36;20.77;;;8.63;;
77409;SDS011;66481;51.332;22.804;2023-05-19T12:53:53;14.75;;;8.23;;
77409;SDS011;66481;51.332;22.804;2023-05-19T12:57:54;15.18;;;8.43;;
77409;SDS011;66481;51.332;22.804;2023-05-19T13:01:58;15.38;;;8.00;;
77409;SDS011;66481;51.332;22.804;2023-05-19T13:05:59;13.00;;;8.23;;
77409;SDS011;66481;51.332;22.804;2023-05-19T13:10:00;12.93;;;7.43;;
77409;SDS011;66481;51.332;22.804;2023-05-19T13:14:02;19.75;;;8.48;;
77409;SDS011;66481;51.332;22.804;2023-05-19T13:18:04;15.90;;;8.93;;
77409;SDS011;66481;51.332;22.804;2023-05-19T13:22:08;16.85;;;9.15;;
77409;SDS011;66481;51.332;22.804;2023-05-19T13:26:09;17.75;;;10.65;;
77409;SDS011;66481;51.332;22.804;2023-05-19T13:30:13;22.73;;;10.15;;
77409;SDS011;66481;51.332;22.804;2023-05-19T13:34:18;19.98;;;9.82;;
77409;SDS011;66481;51.332;22.804;2023-05-19T13:38:20;17.55;;;9.57;;
77409;SDS011;66481;51.332;22.804;2023-05-19T13:42:21;19.67;;;10.90;;
77409;SDS011;66481;51.332;22.804;2023-05-19T13:46:23;18.10;;;10.07;;
77409;SDS011;66481;51.332;22.804;2023-05-19T13:50:24;23.65;;;10.57;;
77409;SDS011;66481;51.332;22.804;2023-05-19T13:54:25;20.55;;;11.82;;
77409;SDS011;66481;51.332;22.804;2023-05-19T13:58:27;18.02;;;9.27;;
77409;SDS011;66481;51.332;22.804;2023-05-19T14:02:29;19.70;;;10.30;;
77409;SDS011;66481;51.332;22.804;2023-05-19T14:06:30;17.83;;;9.77;;
77409;SDS011;66481;51.332;22.804;2023-05-19T14:10:31;20.63;;;10.00;;
77409;SDS011;66481;51.332;22.804;2023-05-19T14:14:32;14.35;;;8.82;;
77409;SDS011;66481;51.332;22.804;2023-05-19T14:18:33;15.73;;;9.60;;
77409;SDS011;66481;51.332;22.804;2023-05-19T14:22:34;14.07;;;9.60;;
77409;SDS011;66481;51.332;22.804;2023-05-19T14:31:50;16.42;;;9.65;;
77409;SDS011;66481;51.332;22.804;2023-05-19T14:35:52;14.13;;;8.57;;
77409;SDS011;66481;51.332;22.804;2023-05-19T14:39:53;14.70;;;8.65;;
77409;SDS011;66481;51.332;22.804;2023-05-19T14:43:54;15.98;;;8.82;;
77409;SDS011;66481;51.332;22.804;2023-05-19T14:47:55;13.43;;;8.73;;
77409;SDS011;66481;51.332;22.804;2023-05-19T14:51:56;15.98;;;9.05;;
77409;SDS011;66481;51.332;22.804;2023-05-19T14:55:57;15.93;;;9.30;;
77409;SDS011;66481;51.332;22.804;2023-05-19T14:59:59;15.82;;;9.57;;
77409;SDS011;66481;51.332;22.804;2023-05-19T15:04:00;16.40;;;9.00;;
77409;SDS011;66481;51.332;22.804;2023-05-19T15:08:01;17.23;;;9.82;;
77409;SDS011;66481;51.332;22.804;2023-05-19T15:12:03;14.82;;;8.88;;
77409;SDS011;66481;51.332;22.804;2023-05-19T15:16:04;14.80;;;8.93;;
77409;SDS011;66481;51.332;22.804;2023-05-19T15:20:09;15.90;;;9.18;;
77409;SDS011;66481;51.332;22.804;2023-05-19T15:24:11;14.27;;;9.02;;
77409;SDS011;66481;51.332;22.804;2023-05-19T15:28:12;17.00;;;10.27;;
77409;SDS011;66481;51.332;22.804;2023-05-19T15:32:13;18.25;;;10.38;;
77409;SDS011;66481;51.332;22.804;2023-05-19T15:36:14;18.40;;;9.98;;
77409;SDS011;66481;51.332;22.804;2023-05-19T15:40:16;16.75;;;9.50;;
77409;SDS011;66481;51.332;22.804;2023-05-19T15:44:17;15.75;;;9.63;;
77409;SDS011;66481;51.332;22.804;2023-05-19T15:48:18;14.63;;;8.10;;
77409;SDS011;66481;51.332;22.804;2023-05-19T15:52:19;14.00;;;8.73;;
77409;SDS011;66481;51.332;22.804;2023-05-19T15:56:20;17.05;;;10.35;;
77409;SDS011;66481;51.332;22.804;2023-05-19T16:00:22;16.45;;;10.13;;
77409;SDS011;66481;51.332;22.804;2023-05-19T16:04:23;16.83;;;9.60;;
77409;SDS011;66481;51.332;22.804;2023-05-19T16:08:24;18.90;;;11.48;;
77409;SDS011;66481;51.332;22.804;2023-05-19T16:12:25;18.27;;;10.30;;
77409;SDS011;66481;51.332;22.804;2023-05-19T16:16:27;20.05;;;10.80;;
77409;SDS011;66481;51.332;22.804;2023-05-19T16:20:28;16.90;;;10.18;;
77409;SDS011;66481;51.332;22.804;2023-05-19T16:24:30;16.52;;;10.35;;
77409;SDS011;66481;51.332;22.804;2023-05-19T16:28:31;29.65;;;13.68;;
77409;SDS011;66481;51.332;22.804;2023-05-19T16:32:32;32.13;;;17.05;;
77409;SDS011;66481;51.332;22.804;2023-05-19T16:36:33;39.70;;;22.05;;
77409;SDS011;66481;51.332;22.804;2023-05-19T16:40:34;28.77;;;14.20;;
77409;SDS011;66481;51.332;22.804;2023-05-19T16:44:36;33.95;;;13.85;;
77409;SDS011;66481;51.332;22.804;2023-05-19T16:48:37;32.22;;;14.90;;
77409;SDS011;66481;51.332;22.804;2023-05-19T16:52:38;26.85;;;13.50;;
77409;SDS011;66481;51.332;22.804;2023-05-19T16:56:39;23.23;;;12.10;;
77409;SDS011;66481;51.332;22.804;2023-05-19T17:00:40;25.42;;;12.38;;
77409;SDS011;66481;51.332;22.804;2023-05-19T17:04:42;22.58;;;11.82;;
77409;SDS011;66481;51.332;22.804;2023-05-19T17:08:43;27.00;;;12.27;;
77409;SDS011;66481;51.332;22.804;2023-05-19T17:12:44;36.05;;;14.73;;
77409;SDS011;66481;51.332;22.804;2023-05-19T17:16:45;21.88;;;11.38;;
77409;SDS011;66481;51.332;22.804;2023-05-19T17:20:47;24.45;;;12.57;;
77409;SDS011;66481;51.332;22.804;2023-05-19T17:24:48;16.58;;;10.95;;
77409;SDS011;66481;51.332;22.804;2023-05-19T17:28:50;16.15;;;9.68;;
77409;SDS011;66481;51.332;22.804;2023-05-19T17:32:51;15.93;;;10.55;;
77409;SDS011;66481;51.332;22.804;2023-05-19T17:36:52;15.18;;;10.23;;
77409;SDS011;66481;51.332;22.804;2023-05-19T17:40:56;16.27;;;11.10;;
77409;SDS011;66481;51.332;22.804;2023-05-19T17:45:09;14.85;;;10.65;;
77409;SDS011;66481;51.332;22.804;2023-05-19T17:49:11;14.32;;;9.68;;
77409;SDS011;66481;51.332;22.804;2023-05-19T17:53:13;17.85;;;11.02;;
77409;SDS011;66481;51.332;22.804;2023-05-19T17:57:16;38.90;;;17.58;;
77409;SDS011;66481;51.332;22.804;2023-05-19T18:01:18;23.83;;;13.23;;
77409;SDS011;66481;51.332;22.804;2023-05-19T18:05:23;27.63;;;17.13;;
77409;SDS011;66481;51.332;22.804;2023-05-19T18:09:25;14.25;;;10.15;;
77409;SDS011;66481;51.332;22.804;2023-05-19T18:13:27;14.25;;;10.32;;
77409;SDS011;66481;51.332;22.804;2023-05-19T18:17:28;14.82;;;10.65;;
77409;SDS011;66481;51.332;22.804;2023-05-19T18:21:29;16.25;;;11.73;;
77409;SDS011;66481;51.332;22.804;2023-05-19T18:25:31;17.10;;;10.82;;
77409;SDS011;66481;51.332;22.804;2023-05-19T18:29:32;21.20;;;12.02;;
77409;SDS011;66481;51.332;22.804;2023-05-19T18:33:34;19.23;;;12.38;;
77409;SDS011;66481;51.332;22.804;2023-05-19T18:37:35;89.95;;;31.92;;
77409;SDS011;66481;51.332;22.804;2023-05-19T18:41:36;76.70;;;29.52;;
77409;SDS011;66481;51.332;22.804;2023-05-19T18:45:40;55.00;;;25.85;;
77409;SDS011;66481;51.332;22.804;2023-05-19T18:49:41;36.30;;;19.25;;
77409;SDS011;66481;51.332;22.804;2023-05-19T18:53:43;26.30;;;15.10;;
77409;SDS011;66481;51.332;22.804;2023-05-19T18:57:44;26.73;;;16.00;;
77409;SDS011;66481;51.332;22.804;2023-05-19T19:01:46;24.23;;;14.95;;
77409;SDS011;66481;51.332;22.804;2023-05-19T19:05:54;20.50;;;13.30;;
77409;SDS011;66481;51.332;22.804;2023-05-19T19:09:56;22.23;;;13.48;;
77409;SDS011;66481;51.332;22.804;2023-05-19T19:13:59;28.30;;;14.57;;
77409;SDS011;66481;51.332;22.804;2023-05-19T19:18:01;38.83;;;19.88;;
77409;SDS011;66481;51.332;22.804;2023-05-19T19:22:02;24.35;;;14.32;;
77409;SDS011;66481;51.332;22.804;2023-05-19T19:26:04;17.83;;;12.38;;
77409;SDS011;66481;51.332;22.804;2023-05-19T19:30:08;16.13;;;11.60;;
77409;SDS011;66481;51.332;22.804;2023-05-19T19:34:09;19.55;;;12.05;;
77409;SDS011;66481;51.332;22.804;2023-05-19T19:38:11;21.05;;;13.15;;
77409;SDS011;66481;51.332;22.804;2023-05-19T19:42:12;19.88;;;13.52;;
77409;SDS011;66481;51.332;22.804;2023-05-19T19:46:14;19.88;;;14.23;;
77409;SDS011;66481;51.332;22.804;2023-05-19T19:50:15;21.55;;;12.60;;
77409;SDS011;66481;51.332;22.804;2023-05-19T19:54:17;21.98;;;14.02;;
77409;SDS011;66481;51.332;22.804;2023-05-19T19:58:18;19.25;;;13.18;;
77409;SDS011;66481;51.332;22.804;2023-05-19T20:02:20;18.40;;;13.05;;
77409;SDS011;66481;51.332;22.804;2023-05-19T20:06:23;19.58;;;12.80;;
77409;SDS011;66481;51.332;22.804;2023-05-19T20:10:24;17.55;;;11.82;;
77409;SDS011;66481;51.332;22.804;2023-05-19T20:18:29;19.23;;;12.38;;
77409;SDS011;66481;51.332;22.804;2023-05-19T20:22:30;19.20;;;12.10;;
77409;SDS011;66481;51.332;22.804;2023-05-19T20:26:32;18.70;;;12.88;;
77409;SDS011;66481;51.332;22.804;2023-05-19T20:30:33;17.08;;;12.07;;
77409;SDS011;66481;51.332;22.804;2023-05-19T20:34:35;22.13;;;13.07;;
77409;SDS011;66481;51.332;22.804;2023-05-19T20:38:38;17.80;;;13.55;;
77409;SDS011;66481;51.332;22.804;2023-05-19T20:42:40;21.98;;;14.80;;
77409;SDS011;66481;51.332;22.804;2023-05-19T20:46:41;20.60;;;12.68;;
77409;SDS011;66481;51.332;22.804;2023-05-19T20:50:42;21.05;;;13.95;;
77409;SDS011;66481;51.332;22.804;2023-05-19T20:54:43;21.58;;;15.00;;
77409;SDS011;66481;51.332;22.804;2023-05-19T20:58:46;22.25;;;14.98;;
77409;SDS011;66481;51.332;22.804;2023-05-19T21:02:48;22.25;;;13.70;;
77409;SDS011;66481;51.332;22.804;2023-05-19T21:06:49;22.90;;;14.35;;
77409;SDS011;66481;51.332;22.804;2023-05-19T21:10:51;21.85;;;14.82;;
77409;SDS011;66481;51.332;22.804;2023-05-19T21:14:52;20.40;;;13.23;;
77409;SDS011;66481;51.332;22.804;2023-05-19T21:18:53;22.77;;;14.50;;
77409;SDS011;66481;51.332;22.804;2023-05-19T21:22:54;24.50;;;15.25;;
77409;SDS011;66481;51.332;22.804;2023-05-19T21:26:56;25.73;;;16.33;;
77409;SDS011;66481;51.332;22.804;2023-05-19T21:30:57;22.73;;;14.75;;
77409;SDS011;66481;51.332;22.804;2023-05-19T21:34:58;24.42;;;14.25;;
77409;SDS011;66481;51.332;22.804;2023-05-19T21:38:59;20.73;;;13.88;;
77409;SDS011;66481;51.332;22.804;2023-05-19T21:43:01;24.02;;;15.20;;
77409;SDS011;66481;51.332;22.804;2023-05-19T21:47:02;25.50;;;14.50;;
77409;SDS011;66481;51.332;22.804;2023-05-19T21:51:03;23.30;;;15.35;;
77409;SDS011;66481;51.332;22.804;2023-05-19T21:55:06;27.10;;;15.25;;
77409;SDS011;66481;51.332;22.804;2023-05-19T21:59:08;24.13;;;15.43;;
77409;SDS011;66481;51.332;22.804;2023-05-19T22:03:11;28.85;;;16.05;;
77409;SDS011;66481;51.332;22.804;2023-05-19T22:07:13;26.70;;;15.75;;
77409;SDS011;66481;51.332;22.804;2023-05-19T22:11:14;23.73;;;14.45;;
77409;SDS011;66481;51.332;22.804;2023-05-19T22:15:17;26.58;;;16.80;;
77409;SDS011;66481;51.332;22.804;2023-05-19T22:19:18;26.42;;;15.63;;
77409;SDS011;66481;51.332;22.804;2023-05-19T22:23:20;26.20;;;15.50;;
77409;SDS011;66481;51.332;22.804;2023-05-19T22:27:21;25.45;;;17.10;;
77409;SDS011;66481;51.332;22.804;2023-05-19T22:31:23;32.53;;;16.63;;
77409;SDS011;66481;51.332;22.804;2023-05-19T22:35:25;22.92;;;15.93;;
77409;SDS011;66481;51.332;22.804;2023-05-19T22:39:26;27.92;;;16.38;;
77409;SDS011;66481;51.332;22.804;2023-05-19T22:43:28;25.98;;;16.35;;
77409;SDS011;66481;51.332;22.804;2023-05-19T22:47:29;23.92;;;15.73;;
77409;SDS011;66481;51.332;22.804;2023-05-19T22:51:32;29.30;;;16.80;;
77409;SDS011;66481;51.332;22.804;2023-05-19T22:55:33;28.10;;;15.70;;
77409;SDS011;66481;51.332;22.804;2023-05-19T22:59:34;23.83;;;15.30;;
77409;SDS011;66481;51.332;22.804;2023-05-19T23:07:38;27.98;;;15.23;;
77409;SDS011;66481;51.332;22.804;2023-05-19T23:11:40;26.92;;;16.50;;
77409;SDS011;66481;51.332;22.804;2023-05-19T23:15:41;28.70;;;17.25;;
77409;SDS011;66481;51.332;22.804;2023-05-19T23:19:43;32.35;;;16.30;;
77409;SDS011;66481;51.332;22.804;2023-05-19T23:23:44;29.80;;;16.88;;
77409;SDS011;66481;51.332;22.804;2023-05-19T23:27:45;33.03;;;18.85;;
77409;SDS011;66481;51.332;22.804;2023-05-19T23:31:47;35.05;;;18.58;;
77409;SDS011;66481;51.332;22.804;2023-05-19T23:35:48;31.58;;;17.83;;
77409;SDS011;66481;51.332;22.804;2023-05-19T23:39:49;49.35;;;26.05;;
77409;SDS011;66481;51.332;22.804;2023-05-19T23:43:50;26.02;;;16.55;;
77409;SDS011;66481;51.332;22.804;2023-05-19T23:47:51;29.00;;;18.60;;
77409;SDS011;66481;51.332;22.804;2023-05-19T23:51:52;38.15;;;20.88;;
77409;SDS011;66481;51.332;22.804;2023-05-19T23:55:53;38.53;;;21.23;;
77409;SDS011;66481;51.332;22.804;2023-05-19T23:59:55;52.45;;;21.75;;
